Time;durP1;ratioP1;P1;durP2;ratioP2;P2;SDS_P1;SDS_P2;PMS_P1;PMS_P2;Temp;Humidity;BMP_temperature;BMP_pressure;BME280_temperature;BME280_humidity;BME280_pressure;Samples;Min_cycle;Max_cycle;Signal;HPM_P1;HPM_P2
2021/12/29 00:00:53;;;;;;;11.65;6.05;;;;;;;3.38;63.47;98882.56;7656460;32;37135;-74
2021/12/29 00:05:10;;;;;;;8.93;6.25;;;;;;;3.12;65.81;98880.53;7657988;32;39379;-74
2021/12/29 00:09:26;;;;;;;10.93;6.35;;;;;;;2.94;65.50;98881.59;7657822;32;40738;-74
2021/12/29 00:13:43;;;;;;;9.13;6.15;;;;;;;3.27;64.22;98875.38;7657756;32;37834;-74
2021/12/29 00:17:59;;;;;;;8.52;6.25;;;;;;;3.20;64.28;98869.38;7657665;32;37291;-74
2021/12/29 00:22:15;;;;;;;10.45;6.28;;;;;;;3.26;64.08;98872.94;7657687;32;39402;-74
2021/12/29 00:26:32;;;;;;;10.38;6.45;;;;;;;3.26;64.06;98871.09;7656571;32;40721;-74
2021/12/29 00:30:49;;;;;;;10.23;6.62;;;;;;;3.00;65.08;98875.22;7657455;32;37738;-74
2021/12/29 00:35:08;;;;;;;9.40;6.60;;;;;;;2.99;65.08;98877.12;7657502;32;37239;-74
2021/12/29 00:39:24;;;;;;;9.50;6.28;;;;;;;3.14;64.72;98881.09;7657464;32;39976;-74
2021/12/29 00:43:40;;;;;;;11.18;6.80;;;;;;;2.98;65.14;98871.97;7657164;32;41120;-74
2021/12/29 00:47:56;;;;;;;9.07;6.47;;;;;;;3.26;64.46;98868.38;7657012;32;37817;-73
2021/12/29 00:52:12;;;;;;;10.18;6.68;;;;;;;3.04;65.04;98872.87;7657083;32;37844;-74
2021/12/29 00:56:28;;;;;;;9.50;6.80;;;;;;;3.12;65.05;98867.06;7656896;32;39287;-74
2021/12/29 01:00:44;;;;;;;10.40;6.43;;;;;;;2.89;65.17;98847.31;7656808;32;39907;-73
2021/12/29 01:05:02;;;;;;;12.15;6.70;;;;;;;3.29;64.18;98846.31;7643118;32;38694;-73
2021/12/29 01:09:18;;;;;;;8.88;6.22;;;;;;;3.17;64.69;98845.59;7656383;32;37059;-73
2021/12/29 01:13:41;;;;;;;10.73;6.75;;;;;;;3.28;64.19;98828.53;7656544;32;39599;-74
2021/12/29 01:17:59;;;;;;;10.13;6.40;;;;;;;3.26;64.21;98827.16;7656394;32;39859;-73
2021/12/29 01:22:15;;;;;;;11.30;6.85;;;;;;;3.14;64.70;98829.94;7656151;32;38632;-74
2021/12/29 01:26:31;;;;;;;9.13;6.62;;;;;;;2.97;65.46;98825.38;7656246;32;37167;-74
2021/12/29 01:30:48;;;;;;;12.63;7.65;;;;;;;3.09;65.03;98837.97;7656129;32;39772;-74
2021/12/29 01:35:06;;;;;;;11.80;7.35;;;;;;;3.20;64.57;98847.81;7642605;32;40743;-74
2021/12/29 01:39:22;;;;;;;11.93;6.90;;;;;;;3.14;64.68;98848.78;7658201;32;37772;-75
2021/12/29 01:43:39;;;;;;;10.88;6.72;;;;;;;3.08;65.11;98841.69;7659673;32;38175;-74
2021/12/29 01:47:55;;;;;;;10.60;7.12;;;;;;;2.95;65.19;98856.28;7659424;32;40091;-73
2021/12/29 01:52:13;;;;;;;13.15;7.68;;;;;;;2.97;65.48;98860.38;7659440;32;40142;-74
2021/12/29 01:56:31;;;;;;;12.27;7.30;;;;;;;2.96;65.82;98869.53;7659366;32;39335;-74
2021/12/29 02:00:47;;;;;;;11.52;7.40;;;;;;;3.12;65.38;98877.84;7659425;32;37179;-74
2021/12/29 02:05:04;;;;;;;9.68;7.37;;;;;;;2.97;65.42;98884.62;7659451;32;39251;-74
2021/12/29 02:09:20;;;;;;;13.88;7.75;;;;;;;3.17;64.67;98884.16;7659038;32;40886;-74
2021/12/29 02:13:38;;;;;;;13.35;8.20;;;;;;;3.13;65.27;98895.66;7645801;32;37819;-74
2021/12/29 02:17:54;;;;;;;12.52;8.40;;;;;;;3.18;64.79;98893.03;7645765;32;37186;-74
2021/12/29 02:22:22;;;;;;;15.20;8.98;;;;;;;3.30;64.29;98888.37;7659107;32;40022;-73
2021/12/29 02:26:40;;;;;;;15.27;9.40;;;;;;;3.30;64.47;98880.28;7659051;32;39999;-73
2021/12/29 02:30:58;;;;;;;15.93;9.38;;;;;;;3.04;65.55;98880.97;7645364;32;38427;-74
2021/12/29 02:35:16;;;;;;;16.50;10.13;;;;;;;3.00;65.58;98870.69;7659192;32;36077;-74
2021/12/29 02:39:36;;;;;;;18.27;10.02;;;;;;;3.11;65.35;98879.72;7658745;32;40141;-73
2021/12/29 02:44:01;;;;;;;19.05;10.55;;;;;;;3.16;65.34;98876.31;7658925;32;39842;-73
2021/12/29 02:48:18;;;;;;;18.58;10.73;;;;;;;3.32;64.89;98861.19;7658632;32;38271;-74
2021/12/29 02:52:34;;;;;;;17.90;10.25;;;;;;;3.36;64.41;98857.75;7658477;32;37923;-74
2021/12/29 02:56:54;;;;;;;16.95;10.45;;;;;;;2.95;65.84;98851.75;7645153;32;40070;-74
2021/12/29 03:01:14;;;;;;;18.15;9.77;;;;;;;3.07;65.44;98861.59;7658657;32;39906;-74
2021/12/29 03:05:30;;;;;;;16.35;9.43;;;;;;;3.27;64.98;98859.22;7658568;32;38753;-74
2021/12/29 03:09:46;;;;;;;14.57;9.50;;;;;;;3.41;64.70;98853.50;7658490;32;37291;-74
2021/12/29 03:14:04;;;;;;;18.17;9.48;;;;;;;3.00;65.64;98854.53;7658676;32;39966;-73
2021/12/29 03:18:21;;;;;;;15.50;9.18;;;;;;;3.21;65.55;98849.44;7645373;32;39748;-74
2021/12/29 03:22:37;;;;;;;18.05;9.93;;;;;;;3.18;65.32;98852.63;7658455;32;38651;-73
2021/12/29 03:26:53;;;;;;;17.50;9.68;;;;;;;3.24;65.09;98854.31;7644816;32;37967;-74
2021/12/29 03:31:14;;;;;;;17.58;10.30;;;;;;;3.25;65.36;98855.16;7658473;32;40144;-74
2021/12/29 03:35:46;;;;;;;18.50;10.68;;;;;;;3.15;65.81;98845.03;7658356;32;39904;-74
2021/12/29 03:40:04;;;;;;;17.55;10.05;;;;;;;3.29;65.09;98835.53;7658230;32;37789;-74
2021/12/29 03:44:20;;;;;;;19.48;11.50;;;;;;;3.34;65.01;98846.41;7658295;32;36995;-74
2021/12/29 03:48:38;;;;;;;20.90;11.25;;;;;;;3.36;65.17;98846.97;7657836;32;40128;-73
2021/12/29 03:52:54;;;;;;;20.75;9.57;;;;;;;3.20;65.70;98842.41;7658069;32;41194;-74
2021/12/29 03:57:11;;;;;;;17.87;10.60;;;;;;;3.28;64.96;98855.47;7657978;32;38766;-74
2021/12/29 04:01:28;;;;;;;17.80;9.48;;;;;;;3.29;65.02;98840.94;7656655;32;37340;-74
2021/12/29 04:05:45;;;;;;;18.62;10.65;;;;;;;3.30;65.04;98847.97;7657893;32;40073;-74
2021/12/29 04:10:02;;;;;;;19.75;10.43;;;;;;;3.28;65.13;98855.47;7657877;32;38749;-73
2021/12/29 04:14:20;;;;;;;20.12;10.50;;;;;;;3.08;65.94;98871.31;7657639;32;38670;-73
2021/12/29 04:18:45;;;;;;;20.60;10.63;;;;;;;2.90;66.48;98873.19;7658021;32;36217;-73
2021/12/29 04:23:04;;;;;;;22.50;10.43;;;;;;;3.08;65.94;98879.41;7657628;32;40253;-74
2021/12/29 04:27:25;;;;;;;17.35;9.73;;;;;;;3.13;65.80;98890.25;7657364;32;40117;-74
2021/12/29 04:31:42;;;;;;;19.17;10.18;;;;;;;3.19;65.67;98890.09;7657343;32;38573;-74
2021/12/29 04:35:58;;;;;;;19.50;10.77;;;;;;;2.93;66.69;98902.34;7644059;32;37419;-74
2021/12/29 04:40:15;;;;;;;20.62;10.93;;;;;;;3.35;65.06;98901.94;7657268;32;39380;-74
2021/12/29 04:44:32;;;;;;;21.08;10.48;;;;;;;3.30;65.04;98912.63;7643638;32;40723;-73
2021/12/29 04:48:52;;;;;;;20.70;11.35;;;;;;;3.42;64.72;98912.53;7656977;32;37651;-74
2021/12/29 04:53:10;;;;;;;20.75;10.88;;;;;;;3.28;65.26;98901.28;7657136;32;37762;-73
2021/12/29 04:57:26;;;;;;;17.90;10.00;;;;;;;3.34;65.09;98900.28;7656846;32;41065;-74
2021/12/29 05:01:43;;;;;;;18.23;10.00;;;;;;;3.12;65.65;98888.63;7656665;32;40147;-74
2021/12/29 05:10:22;;;;;;;18.17;10.35;;;;;;;3.38;64.75;98900.59;7656376;32;37804;-74
2021/12/29 05:14:38;;;;;;;19.55;11.95;;;;;;;3.32;64.82;98907.78;7658794;32;39992;-74
2021/12/29 05:18:56;;;;;;;27.73;12.55;;;;;;;3.29;65.06;98899.41;7659997;32;39960;-74
2021/12/29 05:23:12;;;;;;;24.15;12.10;;;;;;;3.33;65.05;98903.25;7646420;32;37628;-74
2021/12/29 05:27:28;;;;;;;24.05;12.65;;;;;;;3.33;64.83;98895.97;7659796;32;37114;-75
2021/12/29 05:31:44;;;;;;;21.17;11.85;;;;;;;3.38;64.89;98904.13;7659815;32;39280;-74
2021/12/29 05:36:00;;;;;;;23.15;12.40;;;;;;;3.42;64.54;98911.72;7659896;32;40459;-74
2021/12/29 05:40:16;;;;;;;23.23;11.93;;;;;;;3.22;65.38;98915.72;7659582;32;38127;-74
2021/12/29 05:44:32;;;;;;;24.83;11.80;;;;;;;3.29;64.75;98918.25;7659656;32;37142;-74
2021/12/29 05:48:48;;;;;;;59.00;24.60;;;;;;;3.34;64.74;98923.72;7659551;32;39249;-75
2021/12/29 05:53:05;;;;;;;37.33;18.87;;;;;;;3.53;64.17;98926.97;7659548;32;40687;-74
2021/12/29 05:57:21;;;;;;;27.95;16.17;;;;;;;3.44;64.19;98939.25;7659387;32;38821;-74
2021/12/29 06:01:37;;;;;;;24.25;12.77;;;;;;;3.45;64.15;98930.06;7659393;32;37491;-74
2021/12/29 06:05:53;;;;;;;20.35;10.73;;;;;;;3.43;64.17;98929.50;7659145;32;40358;-75
2021/12/29 06:10:10;;;;;;;20.05;10.77;;;;;;;3.42;64.18;98926.00;7658963;32;39866;-74
2021/12/29 06:14:26;;;;;;;18.45;10.27;;;;;;;3.37;64.44;98926.72;7659205;32;37956;-74
2021/12/29 06:18:42;;;;;;;18.73;10.15;;;;;;;3.68;63.55;98935.28;7659233;32;37798;-74
2021/12/29 06:22:58;;;;;;;23.80;11.32;;;;;;;3.47;64.27;98944.16;7659114;32;39165;-74
2021/12/29 06:27:14;;;;;;;19.98;10.70;;;;;;;3.44;64.18;98941.94;7658377;32;40684;-74
2021/12/29 06:31:32;;;;;;;27.50;10.70;;;;;;;3.42;64.17;98941.37;7658926;32;37907;-74
2021/12/29 06:35:49;;;;;;;18.35;9.43;;;;;;;3.35;64.36;98936.94;7659030;32;37565;-73
2021/12/29 06:40:12;;;;;;;19.83;10.05;;;;;;;3.38;64.12;98939.16;7658947;32;39237;-73
2021/12/29 06:44:28;;;;;;;15.63;8.68;;;;;;;3.64;63.31;98950.34;7658909;32;39677;-74
2021/12/29 06:48:44;;;;;;;15.10;8.80;;;;;;;3.82;62.61;98953.81;7658763;32;38431;-74
2021/12/29 06:53:00;;;;;;;19.65;9.98;;;;;;;3.38;64.21;98960.72;7658904;32;36987;-74
2021/12/29 06:57:16;;;;;;;19.55;10.15;;;;;;;3.74;62.99;98971.22;7658734;32;39936;-74
2021/12/29 07:01:32;;;;;;;20.80;12.00;;;;;;;3.87;62.56;98964.69;7658580;32;40704;-73
2021/12/29 07:05:49;;;;;;;28.05;15.27;;;;;;;3.22;64.79;98977.66;7658638;32;37994;-74
2021/12/29 07:10:06;;;;;;;24.23;13.32;;;;;;;3.30;64.55;98977.28;7632245;32;37311;-72
2021/12/29 07:14:22;;;;;;;21.95;12.75;;;;;;;3.79;63.21;98978.56;7658521;32;39095;-74
2021/12/29 07:18:38;;;;;;;27.08;14.65;;;;;;;3.56;63.84;98988.47;7658434;32;40718;-75
2021/12/29 07:22:54;;;;;;;23.23;13.07;;;;;;;3.53;63.93;98992.47;7658429;32;38147;-74
2021/12/29 07:27:11;;;;;;;25.00;13.30;;;;;;;3.52;64.57;98984.66;7658158;32;38288;-75
2021/12/29 07:31:27;;;;;;;21.90;12.40;;;;;;;3.49;64.63;98990.53;7644818;32;39483;-74
2021/12/29 07:36:04;;;;;;;22.90;12.07;;;;;;;3.54;64.60;98988.72;7657499;32;41085;-73
2021/12/29 07:40:20;;;;;;;25.25;12.57;;;;;;;3.47;65.02;98998.03;7658141;32;38718;-74
2021/12/29 07:44:39;;;;;;;24.15;12.32;;;;;;;3.60;64.76;98991.50;7658267;32;37507;-74
2021/12/29 07:48:54;;;;;;;24.90;12.02;;;;;;;3.84;63.92;99003.72;7658144;32;39223;-74
2021/12/29 07:53:11;;;;;;;24.92;12.07;;;;;;;4.02;63.47;99004.50;7658056;32;40807;-76
2021/12/29 07:57:27;;;;;;;23.90;12.13;;;;;;;3.63;64.73;98991.00;7657962;32;37957;-75
2021/12/29 08:01:43;;;;;;;19.95;10.85;;;;;;;3.99;63.63;98995.06;7657974;32;38093;-75
2021/12/29 08:05:59;;;;;;;23.10;12.27;;;;;;;4.27;67.06;98993.28;7657754;32;40145;-75
2021/12/29 08:10:16;;;;;;;23.33;11.85;;;;;;;4.31;64.93;98983.59;7657592;32;40899;-76
2021/12/29 08:14:32;;;;;;;25.30;13.32;;;;;;;4.26;63.63;98988.94;7657707;32;38552;-75
2021/12/29 08:18:49;;;;;;;27.62;13.82;;;;;;;4.18;63.82;98986.69;7657840;32;37834;-75
2021/12/29 08:23:07;;;;;;;23.73;12.75;;;;;;;4.09;63.70;98997.88;7657603;32;39296;-75
2021/12/29 08:27:23;;;;;;;26.23;14.05;;;;;;;4.13;63.63;99012.50;7657382;32;39925;-74
2021/12/29 08:31:39;;;;;;;26.87;13.95;;;;;;;3.97;64.59;99018.75;7657341;32;37928;-74
2021/12/29 08:35:56;;;;;;;24.67;12.80;;;;;;;4.02;64.06;99036.88;7657443;32;37122;-73
2021/12/29 08:40:13;;;;;;;19.87;11.57;;;;;;;3.94;65.09;99035.44;7657278;32;40160;-75
2021/12/29 08:44:29;;;;;;;23.00;11.73;;;;;;;3.97;64.88;99045.72;7657031;32;40823;-74
2021/12/29 08:48:46;;;;;;;20.45;11.82;;;;;;;4.01;64.37;99046.84;7661618;32;37586;-74
2021/12/29 08:53:05;;;;;;;27.92;14.68;;;;;;;3.41;66.83;99052.91;7665725;32;38256;-74
2021/12/29 08:57:21;;;;;;;29.25;16.27;;;;;;;3.55;67.01;99054.22;7665698;32;39359;-75
2021/12/29 09:01:37;;;;;;;28.85;15.48;;;;;;;3.23;68.16;99060.12;7663868;32;39931;-74
2021/12/29 09:05:54;;;;;;;28.58;16.00;;;;;;;3.94;65.81;99048.91;7651766;32;38670;-75
2021/12/29 09:10:11;;;;;;;29.98;16.87;;;;;;;4.15;65.12;99047.34;7651577;32;37023;-74
2021/12/29 09:14:28;;;;;;;29.20;16.05;;;;;;;4.25;64.62;99054.75;7665789;32;38194;-75
2021/12/29 09:18:47;;;;;;;26.95;14.93;;;;;;;4.18;65.05;99052.25;7665022;32;40603;-74
2021/12/29 09:23:07;;;;;;;23.20;12.20;;;;;;;4.28;64.85;99051.56;7664796;32;38020;-74
2021/12/29 09:27:24;;;;;;;23.62;13.10;;;;;;;4.42;64.47;99052.84;7664828;32;37036;-76
2021/12/29 09:31:41;;;;;;;24.23;12.00;;;;;;;4.59;63.99;99036.59;7664489;32;40128;-75
2021/12/29 09:36:02;;;;;;;20.17;11.12;;;;;;;4.68;64.34;99023.47;7651509;32;39935;-74
2021/12/29 09:40:21;;;;;;;21.75;11.05;;;;;;;4.84;64.20;99017.16;7664342;32;38822;-75
2021/12/29 09:44:37;;;;;;;22.73;11.85;;;;;;;4.70;65.41;99021.34;7664516;32;37912;-74
2021/12/29 09:48:53;;;;;;;15.50;9.48;;;;;;;4.79;65.92;99016.31;7664391;32;39225;-75
2021/12/29 09:53:10;;;;;;;18.70;10.60;;;;;;;5.06;66.56;99009.03;7664318;32;40829;-75
2021/12/29 09:57:26;;;;;;;20.00;10.65;;;;;;;5.44;65.16;99003.72;7664263;32;37835;-75
2021/12/29 10:01:42;;;;;;;20.00;10.98;;;;;;;5.40;62.89;99010.72;7653656;32;37403;-76
2021/12/29 10:06:02;;;;;;;20.15;9.98;;;;;;;5.35;62.51;99002.56;7666761;32;38942;-75
2021/12/29 10:10:20;;;;;;;19.50;10.52;;;;;;;5.34;63.21;99006.34;7659842;32;38617;-76
2021/12/29 10:14:38;;;;;;;18.10;10.77;;;;;;;5.33;63.24;99001.97;7658343;32;38779;-75
2021/12/29 10:19:06;;;;;;;20.62;11.23;;;;;;;5.36;63.18;98990.66;7658523;32;37993;-76
2021/12/29 10:23:25;;;;;;;24.30;13.82;;;;;;;5.01;64.52;98978.47;7658437;32;39339;-76
2021/12/29 10:27:42;;;;;;;22.90;12.55;;;;;;;5.38;63.12;98981.25;7658320;32;41129;-76
2021/12/29 10:32:02;;;;;;;24.52;12.68;;;;;;;5.10;63.77;98987.72;7658103;32;38106;-75
2021/12/29 10:36:20;;;;;;;25.67;14.05;;;;;;;4.35;66.91;98990.16;7658569;32;37187;-75
2021/12/29 10:40:36;;;;;;;24.35;13.05;;;;;;;4.59;66.38;98989.88;7658283;32;39052;-74
2021/12/29 10:44:59;;;;;;;22.37;12.63;;;;;;;4.78;65.47;98987.69;7658376;32;39910;-74
2021/12/29 10:49:18;;;;;;;22.23;12.00;;;;;;;4.69;65.53;98998.09;7657887;32;37814;-74
2021/12/29 10:53:37;;;;;;;23.02;12.30;;;;;;;4.55;65.26;99003.06;7657854;32;37176;-75
2021/12/29 10:58:01;;;;;;;26.15;13.50;;;;;;;4.54;65.76;98992.53;7658053;32;39253;-76
2021/12/29 11:02:35;;;;;;;28.90;15.57;;;;;;;4.47;65.72;99004.31;7656916;32;40841;-74
2021/12/29 11:06:56;;;;;;;30.62;15.60;;;;;;;4.16;66.95;99000.41;7658210;32;38696;-74
2021/12/29 11:11:12;;;;;;;27.13;14.30;;;;;;;4.07;68.12;99000.03;7657624;32;37183;-74
2021/12/29 11:15:32;;;;;;;28.00;14.68;;;;;;;4.21;67.96;98996.94;7658599;32;39969;-73
2021/12/29 11:19:56;;;;;;;26.52;15.02;;;;;;;4.61;66.67;98999.38;7658290;32;40019;-74
2021/12/29 11:24:23;;;;;;;26.58;14.48;;;;;;;4.32;67.19;98990.62;7658094;32;38505;-74
2021/12/29 11:28:39;;;;;;;23.27;13.57;;;;;;;4.37;66.96;98996.09;7658174;32;37386;-74
2021/12/29 11:33:05;;;;;;;26.80;15.48;;;;;;;4.36;67.18;98989.06;7658136;32;40322;-74
2021/12/29 11:37:23;;;;;;;30.10;15.02;;;;;;;4.29;67.98;98994.66;7658114;32;40663;-72
2021/12/29 11:41:42;;;;;;;23.23;13.75;;;;;;;4.39;67.51;98998.56;7657813;32;37972;-75
2021/12/29 11:45:58;;;;;;;27.83;15.50;;;;;;;4.73;66.30;99004.63;7657999;32;37355;-72
2021/12/29 11:50:28;;;;;;;25.90;15.23;;;;;;;4.71;66.49;98998.69;7657854;32;39468;-71
2021/12/29 11:54:47;;;;;;;25.25;13.80;;;;;;;4.83;65.97;98996.66;7657851;32;40773;-73
2021/12/29 11:59:04;;;;;;;29.87;15.13;;;;;;;4.66;66.59;99009.41;7657676;32;37873;-72
2021/12/29 12:04:00;;;;;;;24.95;12.80;;;;;;;4.92;66.05;99007.00;7657711;32;38015;-73
2021/12/29 12:08:22;;;;;;;23.23;14.27;;;;;;;4.79;66.17;99017.09;7657702;32;39460;-72
2021/12/29 12:12:41;;;;;;;27.27;14.00;;;;;;;4.93;65.97;99014.81;7657564;32;40779;-72
2021/12/29 12:17:15;;;;;;;29.02;15.73;;;;;;;5.00;65.81;99010.06;7657585;32;37963;-74
2021/12/29 12:21:34;;;;;;;27.20;14.32;;;;;;;4.92;65.87;99020.50;7643731;32;37236;-74
2021/12/29 12:25:50;;;;;;;27.90;14.85;;;;;;;4.60;67.15;99032.00;7657369;32;38590;-74
2021/12/29 12:30:13;;;;;;;28.40;16.05;;;;;;;4.71;65.72;99028.38;7644049;32;39987;-74
2021/12/29 12:34:29;;;;;;;27.35;15.27;;;;;;;4.75;65.78;99026.78;7657300;32;37876;-74
2021/12/29 12:38:47;;;;;;;25.90;14.25;;;;;;;4.61;67.32;99033.66;7643830;32;37983;-75
2021/12/29 12:43:13;;;;;;;27.62;14.77;;;;;;;4.63;66.98;99029.62;7657239;32;39285;-74
2021/12/29 12:47:31;;;;;;;26.62;14.00;;;;;;;4.99;65.93;99034.63;7657117;32;40743;-75
2021/12/29 12:52:09;;;;;;;25.55;14.75;;;;;;;4.89;65.95;99038.03;7656948;32;37894;-74
2021/12/29 12:56:25;;;;;;;27.08;15.13;;;;;;;4.22;68.85;99049.84;7656642;32;37234;-76
2021/12/29 13:00:45;;;;;;;33.95;17.98;;;;;;;4.80;67.13;99053.06;7643100;32;39318;-74
2021/12/29 13:05:02;;;;;;;36.78;18.98;;;;;;;4.67;67.62;99059.62;7656444;32;40647;-75
2021/12/29 13:09:21;;;;;;;35.58;18.23;;;;;;;4.74;67.32;99062.94;7656055;32;37668;-76
2021/12/29 13:13:42;;;;;;;36.47;17.73;;;;;;;5.08;66.72;99065.53;7656245;32;37556;-75
2021/12/29 13:17:58;;;;;;;31.65;17.33;;;;;;;4.81;66.99;99066.31;7656106;32;39872;-75
2021/12/29 13:22:27;;;;;;;30.90;17.90;;;;;;;4.74;67.31;99064.84;7642172;32;39881;-75
2021/12/29 13:26:47;;;;;;;32.95;18.27;;;;;;;4.59;68.16;99070.84;7655887;32;38222;-75
2021/12/29 13:31:09;;;;;;;33.45;18.95;;;;;;;4.94;66.91;99065.09;7655656;32;38050;-75
2021/12/29 13:35:33;;;;;;;34.45;19.30;;;;;;;4.62;68.22;99075.75;7658293;32;39200;-75
2021/12/29 13:39:53;;;;;;;31.27;17.92;;;;;;;4.51;68.70;99083.72;7659398;32;39748;-75
2021/12/29 13:44:10;;;;;;;33.72;18.08;;;;;;;4.67;68.65;99086.63;7659315;32;37845;-75
2021/12/29 13:48:28;;;;;;;30.45;17.35;;;;;;;4.51;68.87;99089.13;7659465;32;36994;-75
2021/12/29 13:52:58;;;;;;;33.92;17.62;;;;;;;4.76;68.58;99095.94;7659470;32;40088;-75
2021/12/29 13:57:18;;;;;;;28.50;15.07;;;;;;;4.61;69.18;99098.44;7646556;32;40051;-74
2021/12/29 14:01:41;;;;;;;26.87;14.38;;;;;;;4.46;69.51;99093.66;7659366;32;37839;-73
2021/12/29 14:06:04;;;;;;;27.40;13.53;;;;;;;5.20;66.89;99095.91;7659452;32;37980;-75
2021/12/29 14:10:21;;;;;;;24.10;13.70;;;;;;;4.69;68.77;99108.78;7659246;32;40079;-74
2021/12/29 14:14:38;;;;;;;31.30;16.67;;;;;;;4.75;68.75;99120.50;7659200;32;40040;-74
2021/12/29 14:18:55;;;;;;;28.20;15.90;;;;;;;4.94;67.91;99123.72;7645783;32;38783;-74
2021/12/29 14:23:12;;;;;;;24.23;14.93;;;;;;;5.15;67.39;99139.09;7659198;32;38003;-73
2021/12/29 14:27:34;;;;;;;25.57;14.57;;;;;;;5.03;67.35;99138.41;7659109;32;39306;-73
2021/12/29 14:31:53;;;;;;;24.65;13.80;;;;;;;5.10;67.27;99140.94;7658987;32;40786;-73
2021/12/29 14:36:12;;;;;;;27.08;14.75;;;;;;;5.25;66.30;99149.22;7658754;32;38736;-73
2021/12/29 14:40:32;;;;;;;28.55;15.40;;;;;;;5.28;66.03;99162.22;7658737;32;36304;-73
2021/12/29 14:44:56;;;;;;;27.27;15.23;;;;;;;5.04;66.33;99165.19;7658013;32;39132;-73
2021/12/29 14:49:12;;;;;;;27.08;16.30;;;;;;;5.07;66.45;99155.75;7658877;32;39958;-74
2021/12/29 14:53:29;;;;;;;31.25;17.20;;;;;;;4.85;67.42;99167.34;7658721;32;37951;-73
2021/12/29 14:57:46;;;;;;;30.88;16.42;;;;;;;5.17;66.31;99172.06;7658799;32;37954;-73
2021/12/29 15:02:05;;;;;;;32.22;16.05;;;;;;;5.05;66.48;99184.91;7658690;32;39390;-74
2021/12/29 15:06:39;;;;;;;28.55;16.70;;;;;;;5.11;66.17;99183.91;7658496;32;41271;-73
2021/12/29 15:10:58;;;;;;;30.50;15.90;;;;;;;5.10;66.00;99193.06;7658101;32;38180;-75
2021/12/29 15:15:23;;;;;;;26.00;14.43;;;;;;;5.09;66.17;99196.84;7658353;32;38067;-74
2021/12/29 15:19:39;;;;;;;31.40;16.12;;;;;;;5.36;65.14;99204.19;7658034;32;40315;-74
2021/12/29 15:23:55;;;;;;;33.45;16.33;;;;;;;5.35;65.07;99202.59;7658203;32;40899;-73
2021/12/29 15:28:12;;;;;;;34.67;18.23;;;;;;;5.17;65.61;99209.91;7658080;32;37936;-74
2021/12/29 15:32:28;;;;;;;33.38;19.00;;;;;;;5.17;65.29;99209.91;7658050;32;37808;-74
2021/12/29 15:36:45;;;;;;;38.17;19.42;;;;;;;5.01;65.95;99219.69;7658077;32;39306;-74
2021/12/29 15:41:03;;;;;;;40.55;21.15;;;;;;;4.96;66.53;99229.63;7657930;32;39853;-74
2021/12/29 15:45:21;;;;;;;40.42;21.05;;;;;;;5.15;65.54;99233.66;7657803;32;37973;-74
2021/12/29 15:49:38;;;;;;;47.90;26.23;;;;;;;4.80;66.48;99237.50;7657867;32;39185;-75
2021/12/29 15:53:54;;;;;;;51.10;27.45;;;;;;;4.79;67.04;99238.56;7657963;32;39188;-74
2021/12/29 15:58:11;;;;;;;47.83;23.10;;;;;;;4.71;66.75;99249.81;7657598;32;40654;-75
2021/12/29 16:02:27;;;;;;;45.90;23.98;;;;;;;4.85;66.72;99261.87;7657639;32;37871;-74
2021/12/29 16:06:43;;;;;;;42.55;21.45;;;;;;;4.81;66.52;99270.72;7657568;32;38692;-74
2021/12/29 16:11:00;;;;;;;37.53;20.45;;;;;;;5.10;65.69;99260.63;7657319;32;40156;-74
2021/12/29 16:15:17;;;;;;;33.72;18.02;;;;;;;4.80;66.46;99277.22;7657704;32;40565;-73
2021/12/29 16:19:33;;;;;;;38.55;19.17;;;;;;;4.84;66.06;99276.44;7657760;32;38035;-73
2021/12/29 16:23:50;;;;;;;33.97;18.20;;;;;;;4.69;66.59;99284.31;7657507;32;38009;-73
2021/12/29 16:28:07;;;;;;;35.15;17.48;;;;;;;4.79;66.39;99279.06;7657559;32;39541;-73
2021/12/29 16:32:25;;;;;;;34.35;17.35;;;;;;;4.94;65.82;99281.19;7657252;32;40056;-74
2021/12/29 16:36:41;;;;;;;40.35;22.00;;;;;;;4.89;65.84;99298.13;7657219;32;38762;-74
2021/12/29 16:40:57;;;;;;;36.42;19.10;;;;;;;4.80;66.21;99296.91;7657309;32;37254;-74
2021/12/29 16:45:18;;;;;;;32.15;17.27;;;;;;;4.73;66.17;99309.78;7655048;32;39334;-73
2021/12/29 16:49:37;;;;;;;36.05;18.27;;;;;;;4.82;66.02;99313.69;7656658;32;38921;-74
2021/12/29 16:53:55;;;;;;;30.88;17.23;;;;;;;4.76;65.88;99311.16;7650605;32;37682;-73
2021/12/29 16:58:15;;;;;;;27.67;15.40;;;;;;;4.97;65.25;99313.13;7656660;32;37253;-74
2021/12/29 17:02:31;;;;;;;26.58;16.12;;;;;;;4.66;66.12;99322.63;7656849;32;39303;-75
2021/12/29 17:06:47;;;;;;;32.88;17.40;;;;;;;4.91;65.41;99324.91;7649877;32;219228;-75
2021/12/29 17:11:04;;;;;;;35.83;17.70;;;;;;;4.73;65.92;99322.47;7658897;32;37919;-74
2021/12/29 17:15:20;;;;;;;36.30;17.62;;;;;;;4.80;65.76;99342.84;7659732;32;37219;-74
2021/12/29 17:19:37;;;;;;;39.83;20.23;;;;;;;4.73;65.94;99344.06;7659557;32;39395;-75
2021/12/29 17:24:06;;;;;;;35.70;19.25;;;;;;;4.87;65.60;99356.19;7659699;32;40101;-74
2021/12/29 17:28:23;;;;;;;33.05;18.33;;;;;;;4.56;66.55;99357.53;7659456;32;38018;-74
2021/12/29 17:32:40;;;;;;;32.25;18.17;;;;;;;4.84;65.48;99359.38;7659443;32;37491;-74
2021/12/29 17:36:56;;;;;;;36.75;19.17;;;;;;;4.67;66.00;99359.34;7653612;32;39200;-74
2021/12/29 17:41:12;;;;;;;29.27;16.42;;;;;;;4.94;64.92;99364.94;7659658;32;40946;-73
2021/12/29 17:45:28;;;;;;;35.67;17.67;;;;;;;5.01;64.70;99357.50;7659592;32;38469;-74
2021/12/29 17:49:45;;;;;;;26.58;14.60;;;;;;;4.83;65.32;99363.13;7658539;32;37276;-74
2021/12/29 17:54:01;;;;;;;31.95;17.58;;;;;;;4.95;64.75;99368.47;7658623;32;39440;-74
2021/12/29 17:58:18;;;;;;;37.50;20.05;;;;;;;4.83;65.40;99372.06;7658331;32;40786;-74
2021/12/29 18:02:34;;;;;;;38.83;22.23;;;;;;;4.82;65.52;99386.63;7658481;32;37693;-75
2021/12/29 18:06:50;;;;;;;34.42;18.08;;;;;;;4.87;65.36;99394.81;7659482;32;36999;-74
2021/12/29 18:11:08;;;;;;;32.75;18.17;;;;;;;5.15;64.42;99397.69;7658756;32;39879;-74
2021/12/29 18:15:26;;;;;;;31.45;19.33;;;;;;;4.81;65.52;99403.91;7659183;32;42255;-75
2021/12/29 18:19:42;;;;;;;29.12;16.10;;;;;;;4.89;65.08;99398.09;7657975;32;37608;-75
2021/12/29 18:24:00;;;;;;;30.65;16.73;;;;;;;3.77;69.20;99402.12;7658922;32;37212;-75
2021/12/29 18:28:16;;;;;;;31.40;15.63;;;;;;;4.03;68.75;99408.88;7658635;32;39075;-74
2021/12/29 18:32:32;;;;;;;31.20;15.27;;;;;;;4.04;68.83;99428.59;7658663;32;40088;-75
2021/12/29 18:36:49;;;;;;;28.98;15.30;;;;;;;3.89;68.63;99429.09;7658861;32;38108;-73
2021/12/29 18:41:05;;;;;;;30.60;15.43;;;;;;;4.30;67.49;99421.84;7658648;32;37258;-74
2021/12/29 18:45:21;;;;;;;35.17;19.02;;;;;;;4.26;67.45;99426.91;7658412;32;40157;-74
2021/12/29 18:49:37;;;;;;;28.08;14.05;;;;;;;4.55;66.58;99429.59;7658437;32;40848;-74
2021/12/29 18:53:53;;;;;;;30.33;15.50;;;;;;;4.47;66.74;99425.41;7658231;32;38613;-76
2021/12/29 18:58:10;;;;;;;30.12;15.65;;;;;;;4.11;68.09;99438.19;7644977;32;37506;-75
2021/12/29 19:02:27;;;;;;;27.92;14.57;;;;;;;4.58;66.42;99444.50;7644977;32;39920;-74
2021/12/29 19:06:43;;;;;;;33.72;15.15;;;;;;;4.41;66.92;99445.25;7658334;32;40879;-75
2021/12/29 19:11:00;;;;;;;32.00;15.45;;;;;;;4.57;66.26;99448.25;7657999;32;37887;-73
2021/12/29 19:15:20;;;;;;;32.45;16.30;;;;;;;4.66;65.96;99439.53;7658187;32;37308;-74
2021/12/29 19:19:40;;;;;;;41.67;21.35;;;;;;;4.69;65.83;99446.31;7658368;32;40130;-74
2021/12/29 19:23:56;;;;;;;29.25;15.52;;;;;;;4.70;65.81;99458.78;7658499;32;39591;-74
2021/12/29 19:28:18;;;;;;;35.45;16.58;;;;;;;4.81;65.17;99447.13;7658133;32;38463;-75
2021/12/29 19:32:34;;;;;;;34.20;19.33;;;;;;;4.72;65.89;99437.75;7657813;32;37340;-75
2021/12/29 19:36:50;;;;;;;32.58;15.80;;;;;;;4.59;65.79;99444.28;7658183;32;39487;-74
2021/12/29 19:41:07;;;;;;;32.22;16.65;;;;;;;4.53;66.16;99449.81;7658067;32;40784;-75
2021/12/29 19:45:25;;;;;;;30.48;15.27;;;;;;;4.55;66.01;99453.09;7657899;32;38052;-76
2021/12/29 19:49:41;;;;;;;29.73;15.00;;;;;;;4.43;66.69;99448.56;7658150;32;37935;-76
2021/12/29 19:53:57;;;;;;;31.77;15.93;;;;;;;4.31;67.06;99447.75;7657787;32;39505;-75
2021/12/29 19:58:14;;;;;;;36.55;17.12;;;;;;;4.20;67.36;99460.22;7658135;32;39684;-75
2021/12/29 20:02:33;;;;;;;30.23;15.98;;;;;;;4.55;66.04;99462.00;7657922;32;38022;-75
2021/12/29 20:06:50;;;;;;;35.30;17.55;;;;;;;4.51;66.54;99458.97;7657780;32;37221;-75